Time;durP1;ratioP1;P1;durP2;ratioP2;P2;SDS_P1;SDS_P2;PMS_P1;PMS_P2;Temp;Humidity;BMP_temperature;BMP_pressure;BME280_temperature;BME280_humidity;BME280_pressure;Samples;Min_cycle;Max_cycle;Signal;HPM_P1;HPM_P2
2021/11/29 00:02:21;;;;;;;10.63;6.20;;;2.40;1.00;;;;;;4997428;28;20182;-74
2021/11/29 00:04:47;;;;;;;10.63;6.57;;;2.40;1.00;;;;;;4996250;28;20518;-73
2021/11/29 00:07:14;;;;;;;9.07;6.00;;;2.30;1.00;;;;;;4997115;28;20280;-73
2021/11/29 00:09:40;;;;;;;9.35;6.60;;;2.40;1.00;;;;;;4996874;28;20444;-74
2021/11/29 00:12:06;;;;;;;10.20;6.20;;;2.40;1.00;;;;;;4996814;28;20256;-73
2021/11/29 00:14:33;;;;;;;10.57;6.60;;;2.40;1.00;;;;;;4997196;28;20409;-73
2021/11/29 00:17:01;;;;;;;14.02;7.07;;;2.40;1.00;;;;;;4996544;28;20577;-73
2021/11/29 00:19:31;;;;;;;8.57;6.35;;;2.40;1.00;;;;;;4997124;28;20684;-74
2021/11/29 00:21:57;;;;;;;11.00;6.15;;;2.50;1.00;;;;;;4983776;28;20253;-73
2021/11/29 00:24:23;;;;;;;9.93;6.30;;;2.50;1.00;;;;;;4996437;28;20190;-74
2021/11/29 00:26:48;;;;;;;11.80;7.67;;;2.60;1.00;;;;;;4996529;28;20201;-74
2021/11/29 00:29:15;;;;;;;11.00;6.70;;;;;;;;;;4996761;28;20414;-74
2021/11/29 00:31:40;;;;;;;12.98;6.80;;;2.60;1.00;;;;;;4983650;28;20210;-74
2021/11/29 00:34:06;;;;;;;12.77;6.50;;;2.70;1.00;;;;;;4996603;28;20225;-74
2021/11/29 00:36:32;;;;;;;9.20;5.90;;;2.70;1.00;;;;;;4996532;28;20188;-74
2021/11/29 00:39:01;;;;;;;9.83;5.63;;;2.60;1.00;;;;;;4997060;28;20166;-77
2021/11/29 00:41:54;;;;;;;13.38;6.55;;;2.70;1.00;;;;;;4996821;28;20425;-77
2021/11/29 00:44:31;;;;;;;14.32;7.15;;;2.70;1.00;;;;;;4996141;28;20190;-77
2021/11/29 00:47:24;;;;;;;8.98;6.53;;;2.70;1.00;;;;;;4995517;28;20196;-77
2021/11/29 00:50:19;;;;;;;16.80;7.25;;;2.80;1.00;;;;;;4996387;28;20237;-77
2021/11/29 00:52:49;;;;;;;14.90;7.78;;;2.80;1.00;;;;;;4996123;28;20540;-77
2021/11/29 00:55:17;;;;;;;9.70;6.60;;;2.80;1.00;;;;;;4996634;28;20169;-74
2021/11/29 00:57:43;;;;;;;8.32;5.95;;;2.80;1.00;;;;;;4997758;28;20178;-74
2021/11/29 01:00:17;;;;;;;13.65;7.05;;;2.80;1.00;;;;;;4995971;28;20653;-74
2021/11/29 01:02:43;;;;;;;14.43;7.88;;;2.80;1.00;;;;;;4996242;28;20208;-74
2021/11/29 01:05:09;;;;;;;12.18;6.18;;;2.80;1.00;;;;;;4996158;28;20182;-74
2021/11/29 01:07:37;;;;;;;14.00;6.60;;;2.90;1.00;;;;;;4995913;28;20658;-74
2021/11/29 01:10:05;;;;;;;10.20;5.95;;;2.90;1.00;;;;;;4996257;28;20192;-76
2021/11/29 01:13:00;;;;;;;9.70;6.32;;;2.90;1.00;;;;;;4996019;28;20239;-77
2021/11/29 01:15:35;;;;;;;11.98;6.30;;;3.00;1.00;;;;;;4996296;28;20162;-77
2021/11/29 01:18:30;;;;;;;10.05;6.50;;;3.00;1.00;;;;;;4995610;28;20207;-77
2021/11/29 01:21:07;;;;;;;10.50;6.32;;;3.00;1.00;;;;;;4995520;28;20188;-77
2021/11/29 01:24:00;;;;;;;17.02;6.85;;;3.00;1.00;;;;;;4995893;28;20536;-77
2021/11/29 01:26:31;;;;;;;12.73;7.25;;;2.90;1.00;;;;;;4995537;28;20197;-73
2021/11/29 01:29:01;;;;;;;12.15;7.50;;;3.00;1.00;;;;;;4995998;28;20249;-74
2021/11/29 01:31:31;;;;;;;10.82;6.93;;;2.90;1.00;;;;;;4987858;28;20178;-74
2021/11/29 01:33:56;;;;;;;13.43;8.00;;;2.90;1.00;;;;;;4995581;28;20644;-73
2021/11/29 01:36:31;;;;;;;14.43;6.20;;;3.00;1.00;;;;;;4982613;28;20178;-73
2021/11/29 01:38:56;;;;;;;11.93;6.90;;;3.00;1.00;;;;;;4995742;28;20176;-73
2021/11/29 01:41:38;;;;;;;15.83;7.50;;;;;;;;;;4985031;28;20181;-77
2021/11/29 01:44:04;;;;;;;13.77;6.32;;;3.00;1.00;;;;;;4995478;28;20247;-76
2021/11/29 01:46:31;;;;;;;13.55;7.00;;;3.10;1.00;;;;;;4994957;28;20209;-76
2021/11/29 01:49:13;;;;;;;13.70;7.18;;;3.10;1.00;;;;;;4995084;28;20170;-77
2021/11/29 01:52:06;;;;;;;9.93;6.70;;;3.00;1.00;;;;;;4995206;28;20173;-77
2021/11/29 01:54:43;;;;;;;13.07;6.80;;;3.00;1.00;;;;;;4995820;28;20200;-76
2021/11/29 01:57:30;;;;;;;16.55;7.80;;;3.00;1.00;;;;;;4991240;28;20183;-76
2021/11/29 02:00:23;;;;;;;14.82;8.18;;;3.00;1.00;;;;;;4995109;28;20174;-77
2021/11/29 02:03:01;;;;;;;11.35;7.03;;;3.00;1.00;;;;;;4993264;28;20260;-77
2021/11/29 02:05:31;;;;;;;11.23;7.18;;;3.00;1.00;;;;;;4995202;28;20221;-77
2021/11/29 02:08:13;;;;;;;16.65;8.60;;;3.00;1.00;;;;;;4995400;28;20280;-77
2021/11/29 02:10:49;;;;;;;16.90;8.25;;;2.90;1.00;;;;;;4982627;28;20181;-77
2021/11/29 02:13:25;;;;;;;14.63;8.70;;;2.90;1.00;;;;;;4995081;28;20189;-77
2021/11/29 02:16:07;;;;;;;13.00;7.72;;;2.90;1.00;;;;;;4994307;28;20162;-77
2021/11/29 02:18:34;;;;;;;15.05;8.43;;;2.90;1.00;;;;;;4994682;28;20173;-77
2021/11/29 02:24:31;;;;;;;12.60;8.25;;;2.90;1.00;;;;;;4994855;28;20192;-77
2021/11/29 02:26:56;;;;;;;17.73;8.88;;;2.80;1.00;;;;;;4982565;28;20195;-74
2021/11/29 02:29:22;;;;;;;13.13;8.27;;;2.80;1.00;;;;;;4994426;28;20185;-74
2021/11/29 02:31:48;;;;;;;13.73;8.13;;;2.80;1.00;;;;;;4994342;28;20248;-74
2021/11/29 02:34:23;;;;;;;15.90;9.70;;;2.80;1.00;;;;;;4994564;28;20766;-73
2021/11/29 02:36:58;;;;;;;16.33;8.45;;;2.70;1.00;;;;;;4994722;28;20408;-74
2021/11/29 02:39:27;;;;;;;14.90;8.73;;;2.70;1.00;;;;;;4980261;28;20252;-75
2021/11/29 02:42:30;;;;;;;14.68;8.32;;;2.70;1.00;;;;;;4994856;28;20182;-77
2021/11/29 02:45:30;;;;;;;15.38;8.90;;;2.60;1.00;;;;;;4994183;28;20208;-77
2021/11/29 02:48:51;;;;;;;17.17;8.52;;;2.60;1.00;;;;;;4994288;28;20190;-77
2021/11/29 02:51:39;;;;;;;13.93;8.88;;;2.60;1.00;;;;;;4957824;28;20598;-77
2021/11/29 02:54:32;;;;;;;10.90;8.10;;;2.50;1.00;;;;;;4956852;28;20566;-77
2021/11/29 02:57:20;;;;;;;17.20;9.70;;;2.50;1.00;;;;;;4963630;28;20179;-77
2021/11/29 02:59:49;;;;;;;17.30;9.65;;;2.50;1.00;;;;;;4963387;28;20245;-77
2021/11/29 03:02:32;;;;;;;22.55;9.65;;;2.50;1.00;;;;;;4949775;28;20238;-77
2021/11/29 03:05:24;;;;;;;19.63;9.07;;;2.50;1.00;;;;;;4959410;28;20205;-76
2021/11/29 03:08:30;;;;;;;21.52;10.07;;;2.40;1.00;;;;;;4953577;28;20202;-76
2021/11/29 03:11:01;;;;;;;16.42;8.82;;;2.50;1.00;;;;;;4946833;29;20547;-76
2021/11/29 03:13:31;;;;;;;16.92;9.55;;;2.50;1.00;;;;;;4957114;29;20190;-76
2021/11/29 03:15:56;;;;;;;11.75;8.07;;;2.40;1.00;;;;;;4966685;28;20542;-76
2021/11/29 03:22:03;;;;;;;14.77;7.82;;;2.40;1.00;;;;;;4956998;29;20242;-76
2021/11/29 03:24:31;;;;;;;17.30;9.05;;;2.40;1.00;;;;;;4964050;28;20197;-77
2021/11/29 03:27:01;;;;;;;16.70;9.65;;;2.40;1.00;;;;;;4998489;28;20232;-77
2021/11/29 03:29:31;;;;;;;18.05;9.70;;;2.40;1.00;;;;;;4997694;28;20529;-76
2021/11/29 03:32:13;;;;;;;15.63;8.48;;;2.40;1.00;;;;;;4997674;28;20539;-77
2021/11/29 03:38:31;;;;;;;13.93;7.78;;;2.30;1.00;;;;;;4995859;28;20687;-77
2021/11/29 03:41:02;;;;;;;14.43;7.75;;;2.30;1.00;;;;;;4998388;28;20613;-76
2021/11/29 03:43:28;;;;;;;11.73;7.32;;;2.30;1.00;;;;;;4997321;28;20207;-76
2021/11/29 03:46:14;;;;;;;16.23;8.43;;;2.30;1.00;;;;;;4997568;28;20272;-76
2021/11/29 03:49:13;;;;;;;14.82;8.30;;;2.30;1.00;;;;;;4995870;28;20643;-76
2021/11/29 03:52:00;;;;;;;12.43;7.80;;;2.20;1.00;;;;;;4978740;28;20170;-77
2021/11/29 03:54:31;;;;;;;12.75;7.93;;;2.20;1.00;;;;;;4998093;28;20177;-78
2021/11/29 03:56:57;;;;;;;15.65;8.27;;;2.10;1.00;;;;;;4997730;28;20265;-76
2021/11/29 03:59:31;;;;;;;13.80;8.00;;;2.10;1.00;;;;;;4997283;28;20216;-76
2021/11/29 04:02:01;;;;;;;17.42;7.15;;;2.10;1.00;;;;;;4997086;28;20183;-76
2021/11/29 04:04:27;;;;;;;11.55;6.35;;;2.10;1.00;;;;;;4997344;28;20240;-76
2021/11/29 04:06:52;;;;;;;10.90;6.80;;;2.10;1.00;;;;;;4999886;28;20205;-77
2021/11/29 04:09:31;;;;;;;8.30;5.87;;;2.10;1.00;;;;;;4997310;28;20496;-76
2021/11/29 04:12:02;;;;;;;9.55;6.28;;;2.00;1.00;;;;;;4997640;28;20487;-74
2021/11/29 04:14:28;;;;;;;9.63;5.95;;;2.00;1.00;;;;;;4986950;28;20174;-73
2021/11/29 04:16:54;;;;;;;10.10;6.40;;;2.00;1.00;;;;;;4990895;28;20194;-74
2021/11/29 04:19:20;;;;;;;8.93;6.00;;;2.00;1.00;;;;;;4994397;28;20185;-74
2021/11/29 04:21:47;;;;;;;11.67;6.50;;;;;;;;;;4996538;28;20417;-74
2021/11/29 04:24:15;;;;;;;10.82;6.13;;;2.00;1.00;;;;;;4996822;28;20637;-74
2021/11/29 04:27:03;;;;;;;9.35;5.93;;;2.00;1.00;;;;;;4996877;28;20205;-77
2021/11/29 04:30:06;;;;;;;14.57;6.57;;;2.00;1.00;;;;;;4995948;28;20273;-77
2021/11/29 04:33:00;;;;;;;8.70;5.88;;;1.90;1.00;;;;;;4996470;28;20173;-77
2021/11/29 04:35:31;;;;;;;8.48;5.57;;;2.00;1.00;;;;;;4996930;28;20199;-77
2021/11/29 04:38:01;;;;;;;12.02;7.38;;;2.00;1.00;;;;;;4996417;28;20187;-77
2021/11/29 04:40:31;;;;;;;12.60;7.00;;;2.00;1.00;;;;;;4996772;28;20176;-77
2021/11/29 04:43:01;;;;;;;11.32;6.50;;;2.00;1.00;;;;;;4996531;28;20582;-77
2021/11/29 04:45:31;;;;;;;11.20;6.90;;;2.00;1.00;;;;;;4996561;28;20193;-77
2021/11/29 04:48:01;;;;;;;12.50;5.72;;;2.00;1.00;;;;;;4985839;28;20564;-78
2021/11/29 04:50:31;;;;;;;9.25;5.80;;;2.00;1.00;;;;;;4983651;28;20250;-77
2021/11/29 04:53:01;;;;;;;13.55;6.43;;;2.00;1.00;;;;;;4996041;28;20236;-77
2021/11/29 04:55:31;;;;;;;10.18;5.78;;;1.90;1.00;;;;;;4996270;28;20240;-77
2021/11/29 04:58:01;;;;;;;10.40;6.18;;;1.90;1.00;;;;;;4996495;28;20162;-74
2021/11/29 05:00:27;;;;;;;11.85;6.03;;;1.90;1.00;;;;;;4996194;28;20178;-74
2021/11/29 05:02:53;;;;;;;11.38;6.70;;;1.90;1.00;;;;;;4995838;28;20177;-73
2021/11/29 05:05:19;;;;;;;11.07;6.40;;;1.90;1.00;;;;;;4996154;28;20174;-74
2021/11/29 05:07:49;;;;;;;12.20;7.45;;;1.90;1.00;;;;;;4995837;28;20202;-73
2021/11/29 05:10:19;;;;;;;13.18;7.15;;;1.80;1.00;;;;;;4995918;28;20185;-74
2021/11/29 05:12:49;;;;;;;16.88;7.10;;;1.80;1.00;;;;;;4995977;28;20186;-74
2021/11/29 05:15:14;;;;;;;13.85;6.82;;;1.80;1.00;;;;;;4995775;28;20711;-73
2021/11/29 05:17:40;;;;;;;10.30;6.50;;;1.80;1.00;;;;;;4995909;28;20181;-74
2021/11/29 05:20:06;;;;;;;12.57;7.30;;;1.70;1.00;;;;;;4995911;28;20664;-73
2021/11/29 05:22:32;;;;;;;12.38;7.10;;;1.70;1.00;;;;;;4995854;28;20207;-73
2021/11/29 05:25:01;;;;;;;13.93;6.70;;;1.60;1.00;;;;;;4995400;28;20210;-73
2021/11/29 05:27:27;;;;;;;13.07;7.22;;;1.60;1.00;;;;;;4995772;28;20459;-73
2021/11/29 05:29:55;;;;;;;9.60;6.33;;;1.50;1.00;;;;;;4995662;28;20181;-74
2021/11/29 05:32:21;;;;;;;12.55;7.18;;;1.50;1.00;;;;;;4995027;28;20189;-73
2021/11/29 05:34:46;;;;;;;11.73;5.93;;;1.40;1.00;;;;;;4995437;28;20182;-73
2021/11/29 05:37:12;;;;;;;14.77;7.13;;;1.40;1.00;;;;;;4995620;28;20574;-74
2021/11/29 05:39:38;;;;;;;11.60;6.70;;;1.40;1.00;;;;;;4995080;28;20181;-73
2021/11/29 05:42:04;;;;;;;11.60;6.93;;;1.30;1.00;;;;;;4996111;28;20403;-76
2021/11/29 05:45:07;;;;;;;12.02;7.80;;;1.30;1.00;;;;;;4995294;28;20200;-76
2021/11/29 05:47:37;;;;;;;16.05;8.35;;;1.30;1.00;;;;;;4995390;28;20559;-76
2021/11/29 05:50:08;;;;;;;14.82;8.35;;;1.30;1.00;;;;;;4995723;28;20174;-76
2021/11/29 05:52:37;;;;;;;21.27;9.18;;;1.20;1.00;;;;;;4995428;28;20659;-76
2021/11/29 05:55:14;;;;;;;20.88;10.02;;;1.20;1.00;;;;;;4994852;28;20185;-76
2021/11/29 05:57:41;;;;;;;21.70;9.10;;;1.10;1.00;;;;;;4991217;28;20531;-74
2021/11/29 06:00:11;;;;;;;23.13;10.38;;;1.10;1.00;;;;;;4994484;28;20232;-73
2021/11/29 06:02:38;;;;;;;20.52;10.65;;;1.20;1.00;;;;;;4994825;28;20185;-73
2021/11/29 06:05:05;;;;;;;24.50;11.27;;;1.20;1.00;;;;;;4994685;28;20228;-73
2021/11/29 06:07:31;;;;;;;17.60;10.65;;;1.30;1.00;;;;;;4994804;28;20205;-74
2021/11/29 06:09:57;;;;;;;17.37;10.77;;;1.20;1.00;;;;;;4994757;28;20531;-74
2021/11/29 06:12:25;;;;;;;20.17;10.53;;;1.30;1.00;;;;;;4995345;28;20513;-77
2021/11/29 06:14:55;;;;;;;16.73;10.02;;;1.30;1.00;;;;;;4994572;28;20185;-73
2021/11/29 06:17:21;;;;;;;18.50;10.05;;;1.40;1.00;;;;;;4994095;28;20243;-77
2021/11/29 06:20:01;;;;;;;22.93;11.63;;;1.40;1.00;;;;;;4999723;28;20178;-76
2021/11/29 06:22:55;;;;;;;21.20;11.55;;;1.40;1.00;;;;;;4996875;28;20173;-76
2021/11/29 06:25:22;;;;;;;18.17;10.68;;;1.40;1.00;;;;;;4990799;28;20193;-76
2021/11/29 06:27:49;;;;;;;22.38;11.88;;;1.50;1.00;;;;;;4993437;28;20229;-74
2021/11/29 06:30:15;;;;;;;20.90;11.15;;;1.60;1.00;;;;;;4993272;28;20201;-74
2021/11/29 06:32:41;;;;;;;23.33;10.90;;;1.60;1.00;;;;;;4993466;28;20173;-74
2021/11/29 06:35:07;;;;;;;20.30;10.67;;;1.60;1.00;;;;;;4993449;28;20178;-75
2021/11/29 06:37:33;;;;;;;22.90;10.00;;;1.70;1.00;;;;;;4990939;28;20176;-75
2021/11/29 06:40:00;;;;;;;29.25;12.35;;;1.70;1.00;;;;;;4990018;28;20429;-75
2021/11/29 06:42:26;;;;;;;20.15;11.30;;;1.80;1.00;;;;;;4992880;28;20186;-76
2021/11/29 06:44:53;;;;;;;18.15;10.73;;;1.80;1.00;;;;;;4993366;28;20201;-76
2021/11/29 06:47:18;;;;;;;19.65;10.60;;;1.80;1.00;;;;;;4992617;28;20649;-78
2021/11/29 06:49:44;;;;;;;19.23;11.10;;;;;;;;;;4993125;28;20329;-77
2021/11/29 06:52:10;;;;;;;18.63;10.80;;;1.90;1.00;;;;;;4992748;28;20188;-76
2021/11/29 06:54:37;;;;;;;17.03;10.13;;;1.90;1.00;;;;;;4994393;28;20654;-76
2021/11/29 06:57:05;;;;;;;15.85;9.50;;;1.90;1.00;;;;;;4998472;28;20178;-74
2021/11/29 06:59:32;;;;;;;17.02;8.63;;;1.90;1.00;;;;;;4992795;28;20192;-74
2021/11/29 07:01:58;;;;;;;14.20;8.93;;;1.90;1.00;;;;;;4992987;28;20177;-74
2021/11/29 07:04:23;;;;;;;15.43;8.82;;;1.90;1.00;;;;;;4993189;28;20597;-74
2021/11/29 07:06:49;;;;;;;14.93;8.20;;;;;;;;;;4992080;28;20461;-74
2021/11/29 07:09:15;;;;;;;24.63;9.40;;;1.80;1.00;;;;;;4993072;28;20525;-74
2021/11/29 07:11:41;;;;;;;13.33;8.50;;;1.80;1.00;;;;;;4993491;28;20190;-71
2021/11/29 07:14:08;;;;;;;16.60;8.40;;;1.80;1.00;;;;;;4993317;28;20256;-77
2021/11/29 07:16:38;;;;;;;12.70;7.03;;;1.70;1.00;;;;;;4992745;28;20185;-75
2021/11/29 07:19:04;;;;;;;14.68;8.48;;;1.70;1.00;;;;;;4993187;28;20180;-77
2021/11/29 07:21:30;;;;;;;14.15;8.30;;;1.70;1.00;;;;;;4992957;28;20239;-77
2021/11/29 07:23:56;;;;;;;16.38;8.55;;;1.80;1.00;;;;;;4992949;28;20185;-76
2021/11/29 07:26:23;;;;;;;15.67;8.03;;;1.90;1.00;;;;;;4992122;28;20794;-77
2021/11/29 07:28:48;;;;;;;13.45;8.18;;;1.90;1.00;;;;;;4990038;28;20177;-76
2021/11/29 07:31:14;;;;;;;12.97;7.13;;;1.90;1.00;;;;;;4991916;28;20268;-76
2021/11/29 07:33:40;;;;;;;11.60;7.13;;;1.90;1.00;;;;;;4992482;28;20184;-76
2021/11/29 07:36:05;;;;;;;12.93;7.03;;;2.10;1.00;;;;;;4992766;28;20189;-76
2021/11/29 07:38:31;;;;;;;22.43;8.07;;;2.10;1.00;;;;;;4992484;28;20265;-77
2021/11/29 07:40:57;;;;;;;12.70;7.60;;;2.20;1.00;;;;;;4992400;28;20200;-77
2021/11/29 07:43:22;;;;;;;14.77;7.70;;;2.30;1.00;;;;;;4992695;28;20248;-78
2021/11/29 07:45:48;;;;;;;23.70;7.93;;;2.30;1.00;;;;;;4992974;28;20668;-76
2021/11/29 07:48:15;;;;;;;20.83;7.47;;;2.30;1.00;;;;;;4992302;28;20181;-78
2021/11/29 07:50:42;;;;;;;15.75;7.55;;;2.30;1.00;;;;;;4991237;28;20170;-75
2021/11/29 07:53:08;;;;;;;12.52;7.93;;;2.40;1.00;;;;;;4993513;28;20177;-76
2021/11/29 07:56:12;;;;;;;13.70;7.60;;;2.50;1.00;;;;;;4996744;28;20192;-77
2021/11/29 07:58:49;;;;;;;9.90;7.25;;;2.60;1.00;;;;;;4986304;28;20425;-73
2021/11/29 08:01:16;;;;;;;11.88;7.15;;;2.60;1.00;;;;;;4983481;28;20182;-73
2021/11/29 08:03:41;;;;;;;11.70;7.30;;;2.70;1.00;;;;;;4995536;28;20657;-74
2021/11/29 08:06:07;;;;;;;12.10;6.77;;;2.80;1.00;;;;;;4995444;28;20216;-73
2021/11/29 08:08:33;;;;;;;15.87;8.20;;;2.80;1.00;;;;;;4989155;28;20193;-74
2021/11/29 08:11:01;;;;;;;15.53;7.03;;;2.90;1.00;;;;;;4997008;28;20927;-74
2021/11/29 08:13:27;;;;;;;13.68;5.32;;;2.90;1.00;;;;;;4994283;28;20181;-75
2021/11/29 08:15:52;;;;;;;9.10;5.73;;;3.10;1.00;;;;;;4996770;28;20178;-74
2021/11/29 08:18:19;;;;;;;10.20;6.20;;;3.10;1.00;;;;;;4995431;28;20421;-74
2021/11/29 08:20:49;;;;;;;9.13;6.63;;;3.20;1.00;;;;;;4995421;28;20521;-74
2021/11/29 08:23:15;;;;;;;8.57;4.63;;;3.30;1.00;;;;;;4985458;28;20261;-74
2021/11/29 08:25:41;;;;;;;9.25;5.60;;;3.40;1.00;;;;;;4996410;28;20499;-74
2021/11/29 08:29:00;;;;;;;8.13;4.97;;;3.40;1.00;;;;;;4997188;28;20201;-76
2021/11/29 08:31:31;;;;;;;11.73;7.03;;;3.50;1.00;;;;;;4985949;28;20405;-77
2021/11/29 08:37:18;;;;;;;11.60;5.70;;;3.60;1.00;;;;;;4979869;28;20262;-76
2021/11/29 08:39:44;;;;;;;8.37;6.20;;;3.60;1.00;;;;;;4988304;28;20175;-76
2021/11/29 08:42:10;;;;;;;10.60;5.90;;;3.60;1.00;;;;;;4992794;28;20200;-76
2021/11/29 08:44:36;;;;;;;9.70;6.43;;;3.60;1.00;;;;;;4995970;28;20193;-74
2021/11/29 08:47:02;;;;;;;14.23;6.30;;;3.60;1.00;;;;;;4991364;28;20229;-74
2021/11/29 08:49:28;;;;;;;15.93;5.65;;;3.60;1.00;;;;;;4994961;28;20182;-73
2021/11/29 08:51:56;;;;;;;9.10;5.47;;;3.70;1.00;;;;;;4994880;28;20188;-73
2021/11/29 08:54:23;;;;;;;9.23;6.05;;;3.80;1.00;;;;;;4995302;28;20166;-73
2021/11/29 08:56:49;;;;;;;14.85;5.60;;;3.90;1.00;;;;;;5001747;28;20253;-74
2021/11/29 08:59:17;;;;;;;14.52;6.30;;;4.00;1.00;;;;;;4995554;28;20256;-77
2021/11/29 09:01:43;;;;;;;10.57;5.22;;;4.00;1.00;;;;;;4993878;28;20201;-77
2021/11/29 09:04:10;;;;;;;9.43;5.53;;;4.00;1.00;;;;;;4993907;28;20196;-77
2021/11/29 09:06:36;;;;;;;11.35;6.00;;;4.40;1.00;;;;;;4994290;28;20197;-75
2021/11/29 09:09:03;;;;;;;8.47;4.67;;;4.00;1.00;;;;;;4995561;28;20232;-75
2021/11/29 09:11:28;;;;;;;9.73;5.68;;;4.00;1.00;;;;;;4995454;28;20437;-75
2021/11/29 09:13:54;;;;;;;9.37;5.43;;;4.20;1.00;;;;;;4995399;28;20189;-72
2021/11/29 09:16:20;;;;;;;8.40;5.70;;;4.20;1.00;;;;;;4994680;28;20181;-73
2021/11/29 09:18:46;;;;;;;7.37;5.07;;;4.40;1.00;;;;;;4994555;28;20217;-73
2021/11/29 09:21:14;;;;;;;9.50;5.22;;;4.30;1.00;;;;;;4994871;28;20257;-73
2021/11/29 09:23:44;;;;;;;7.27;4.53;;;4.30;1.00;;;;;;4994824;28;20181;-73
2021/11/29 09:26:10;;;;;;;7.32;4.35;;;4.30;1.00;;;;;;4993022;28;20504;-73
2021/11/29 09:28:38;;;;;;;8.65;5.07;;;;;;;;;;4989064;28;20200;-75
2021/11/29 09:31:04;;;;;;;6.05;4.18;;;4.30;1.00;;;;;;4988298;28;20166;-75
2021/11/29 09:33:30;;;;;;;6.18;4.00;;;4.30;1.00;;;;;;4993070;28;20675;-75
2021/11/29 09:35:56;;;;;;;7.50;4.23;;;4.30;1.00;;;;;;4998072;28;20185;-76
2021/11/29 09:38:22;;;;;;;6.28;4.07;;;4.30;1.00;;;;;;4994360;28;20633;-75
2021/11/29 09:40:48;;;;;;;5.10;3.97;;;4.30;1.00;;;;;;4990724;28;20219;-76
2021/11/29 09:43:16;;;;;;;6.45;3.58;;;4.20;1.00;;;;;;4996945;28;20263;-75
2021/11/29 09:45:43;;;;;;;6.53;3.22;;;4.20;1.00;;;;;;4993896;28;20178;-75
2021/11/29 09:48:10;;;;;;;11.13;3.05;;;4.20;1.00;;;;;;4994082;28;20194;-75
2021/11/29 09:50:43;;;;;;;4.80;3.25;;;4.30;1.00;;;;;;4994237;28;20422;-76
2021/11/29 09:53:10;;;;;;;7.32;3.50;;;4.30;1.00;;;;;;4992749;28;20879;-76
2021/11/29 09:55:37;;;;;;;7.57;3.38;;;4.30;1.00;;;;;;4998207;28;20216;-76
2021/11/29 09:58:04;;;;;;;3.67;2.60;;;4.50;1.00;;;;;;4990544;28;20578;-77
2021/11/29 10:00:43;;;;;;;4.90;3.75;;;4.50;1.00;;;;;;4994691;28;20285;-74
2021/11/29 10:03:09;;;;;;;3.08;2.70;;;4.60;1.00;;;;;;4991900;28;20247;-74
2021/11/29 10:05:36;;;;;;;2.63;2.42;;;;;;;;;;4992755;28;20282;-74
2021/11/29 10:08:23;;;;;;;3.83;3.10;;;4.70;1.00;;;;;;4992668;28;20201;-74
2021/11/29 10:10:54;;;;;;;5.20;3.28;;;4.80;1.00;;;;;;4993572;28;20436;-74
2021/11/29 10:13:21;;;;;;;6.97;2.67;;;4.90;1.00;;;;;;4993792;28;20178;-74
2021/11/29 10:15:48;;;;;;;7.50;2.90;;;5.00;1.00;;;;;;4992612;28;20520;-73
2021/11/29 10:18:29;;;;;;;3.60;2.70;;;5.10;1.00;;;;;;4991165;28;20413;-74
2021/11/29 10:21:07;;;;;;;4.13;2.90;;;5.20;1.00;;;;;;4991689;28;20923;-74
2021/11/29 10:23:40;;;;;;;6.73;3.10;;;5.20;1.00;;;;;;4993274;28;20423;-73
2021/11/29 10:26:29;;;;;;;3.50;2.37;;;5.20;1.00;;;;;;4993441;28;20769;-74
2021/11/29 10:29:05;;;;;;;5.20;2.67;;;5.10;1.00;;;;;;4994146;28;20456;-76
2021/11/29 10:31:38;;;;;;;4.27;2.70;;;5.20;1.00;;;;;;4991336;28;20790;-77
2021/11/29 10:34:05;;;;;;;3.40;2.87;;;5.20;1.00;;;;;;4993723;28;20409;-77
2021/11/29 10:36:38;;;;;;;6.90;2.80;;;5.20;1.00;;;;;;4983323;28;20428;-77
2021/11/29 10:39:10;;;;;;;5.00;2.87;;;5.10;1.00;;;;;;4981447;28;20521;-77
2021/11/29 10:41:45;;;;;;;1.93;1.83;;;5.00;1.00;;;;;;4992325;28;20515;-77
2021/11/29 10:44:18;;;;;;;6.55;2.90;;;4.80;1.00;;;;;;4993486;28;20965;-77
2021/11/29 10:46:46;;;;;;;8.50;2.70;;;4.80;1.00;;;;;;4992795;28;20343;-76
2021/11/29 10:49:14;;;;;;;5.40;2.80;;;4.70;1.00;;;;;;4993385;28;20421;-77
2021/11/29 10:51:46;;;;;;;2.47;1.87;;;4.80;1.00;;;;;;4993155;28;20424;-77
2021/11/29 10:54:15;;;;;;;3.20;2.60;;;4.70;1.00;;;;;;4988435;28;20463;-77
2021/11/29 10:56:43;;;;;;;2.63;2.43;;;4.70;1.00;;;;;;4992728;28;20522;-77
2021/11/29 10:59:12;;;;;;;3.87;2.60;;;4.70;1.00;;;;;;4992289;28;20417;-76
2021/11/29 11:01:47;;;;;;;2.83;1.97;;;4.70;1.00;;;;;;5000970;28;20974;-74
2021/11/29 11:04:15;;;;;;;2.72;2.47;;;4.70;1.00;;;;;;4993637;28;20451;-74
2021/11/29 11:06:45;;;;;;;3.08;2.13;;;4.70;1.00;;;;;;4997166;28;20307;-74
2021/11/29 11:09:12;;;;;;;2.03;1.83;;;4.70;1.00;;;;;;4991812;28;20181;-74
2021/11/29 11:11:53;;;;;;;3.50;2.17;;;4.70;1.00;;;;;;4993521;28;20180;-74
2021/11/29 11:14:23;;;;;;;2.80;2.57;;;4.70;1.00;;;;;;4981986;28;20483;-74
2021/11/29 11:16:56;;;;;;;3.97;2.30;;;4.60;1.00;;;;;;4992426;28;20431;-76
2021/11/29 11:19:32;;;;;;;2.53;2.33;;;4.80;1.00;;;;;;4993077;28;20504;-76
2021/11/29 11:22:09;;;;;;;6.10;2.60;;;4.90;1.00;;;;;;4992761;28;20471;-76
2021/11/29 11:24:45;;;;;;;2.97;2.73;;;4.80;1.00;;;;;;4993354;28;20185;-79
2021/11/29 11:27:12;;;;;;;2.65;1.95;;;4.80;1.00;;;;;;4985129;28;20875;-76
2021/11/29 11:29:40;;;;;;;4.37;3.00;;;4.90;1.00;;;;;;5008350;28;20181;-76
2021/11/29 11:32:12;;;;;;;3.67;2.42;;;4.80;1.00;;;;;;4996607;28;20408;-77
2021/11/29 11:34:42;;;;;;;3.20;2.30;;;4.80;1.00;;;;;;4996397;28;20178;-76
2021/11/29 11:37:08;;;;;;;3.70;2.67;;;;;;;;;;4996446;28;20447;-77
2021/11/29 11:39:38;;;;;;;3.10;2.13;;;4.80;1.00;;;;;;4996673;28;20417;-76
2021/11/29 11:42:05;;;;;;;2.37;1.63;;;4.80;1.00;;;;;;4996229;28;20931;-76
2021/11/29 11:44:36;;;;;;;6.33;2.60;;;4.80;1.00;;;;;;4983952;28;20442;-73
2021/11/29 11:47:08;;;;;;;4.20;2.50;;;4.80;1.00;;;;;;4995958;28;20453;-74
2021/11/29 11:49:37;;;;;;;2.50;2.30;;;4.80;1.00;;;;;;4986456;28;20446;-74
2021/11/29 11:52:05;;;;;;;4.23;3.00;;;4.90;1.00;;;;;;4995826;28;20272;-74
2021/11/29 11:54:31;;;;;;;1.97;1.70;;;4.80;1.00;;;;;;4997004;28;20420;-74
2021/11/29 11:56:57;;;;;;;3.73;2.70;;;4.80;1.00;;;;;;4999152;28;20467;-73
2021/11/29 11:59:28;;;;;;;3.57;2.27;;;4.90;1.00;;;;;;4995791;28;20424;-73
2021/11/29 12:01:57;;;;;;;2.80;2.30;;;4.90;1.00;;;;;;4986886;28;20177;-77
2021/11/29 12:04:25;;;;;;;1.90;1.80;;;4.90;1.00;;;;;;4989287;28;20532;-77
2021/11/29 12:06:50;;;;;;;2.85;1.95;;;4.90;1.00;;;;;;4994478;28;21149;-77
2021/11/29 12:09:16;;;;;;;14.83;2.77;;;4.90;1.00;;;;;;4993642;28;20192;-77
2021/11/29 12:11:45;;;;;;;3.07;2.10;;;4.90;1.00;;;;;;4996476;28;20192;-76
2021/11/29 12:14:22;;;;;;;2.55;2.05;;;5.00;1.00;;;;;;4995572;28;20194;-76
2021/11/29 12:17:17;;;;;;;4.67;2.83;;;5.00;1.00;;;;;;4988938;28;20696;-76
2021/11/29 12:19:46;;;;;;;1.70;1.57;;;5.10;1.00;;;;;;4995460;28;20431;-76
2021/11/29 12:22:20;;;;;;;2.00;1.83;;;5.20;1.00;;;;;;4996091;28;20409;-78
2021/11/29 12:24:55;;;;;;;3.93;1.57;;;5.30;1.00;;;;;;4995847;28;20413;-76
2021/11/29 12:27:21;;;;;;;1.93;1.73;;;5.30;1.00;;;;;;4995843;28;20458;-77
2021/11/29 12:29:50;;;;;;;4.33;1.63;;;5.40;1.00;;;;;;4994096;28;20457;-78
2021/11/29 12:32:19;;;;;;;2.87;2.00;;;5.30;1.00;;;;;;4996256;28;20409;-73
2021/11/29 12:34:51;;;;;;;3.20;2.17;;;5.40;1.00;;;;;;4994277;28;20486;-73
2021/11/29 12:37:30;;;;;;;2.97;2.27;;;5.40;1.00;;;;;;4995493;28;20780;-74
2021/11/29 12:40:09;;;;;;;1.93;1.70;;;5.40;1.00;;;;;;4995570;28;20424;-74
2021/11/29 12:42:35;;;;;;;5.33;2.50;;;5.50;1.00;;;;;;4993504;28;20425;-74
2021/11/29 12:45:11;;;;;;;2.47;2.20;;;5.50;1.00;;;;;;4990458;28;20440;-74
2021/11/29 12:47:51;;;;;;;3.17;2.47;;;5.50;1.00;;;;;;4993683;28;20193;-79
2021/11/29 12:51:07;;;;;;;2.60;2.00;;;5.50;1.00;;;;;;4995908;28;20416;-78
2021/11/29 12:54:13;;;;;;;4.50;1.93;;;5.60;1.00;;;;;;4996074;28;20405;-75
2021/11/29 12:57:33;;;;;;;2.83;2.00;;;5.50;1.00;;;;;;4996419;28;20484;-76
2021/11/29 13:00:34;;;;;;;3.43;1.87;;;5.50;1.00;;;;;;4977399;28;20449;-79
2021/11/29 13:03:16;;;;;;;2.10;1.90;;;5.60;1.00;;;;;;4967042;28;20536;-74
2021/11/29 13:05:53;;;;;;;3.80;1.90;;;5.60;1.00;;;;;;4968521;28;20421;-73
2021/11/29 13:08:31;;;;;;;9.53;2.60;;;5.70;1.00;;;;;;4992437;28;20452;-74
2021/11/29 13:10:59;;;;;;;5.13;1.90;;;5.60;1.00;;;;;;4984223;28;20495;-73
2021/11/29 13:13:56;;;;;;;3.03;1.97;;;5.50;1.00;;;;;;4977107;28;20492;-74
2021/11/29 13:16:35;;;;;;;2.50;1.50;;;5.60;1.00;;;;;;4973837;28;20429;-75
2021/11/29 13:19:13;;;;;;;1.80;1.33;;;5.60;1.00;;;;;;4973247;28;20936;-74
2021/11/29 13:21:48;;;;;;;2.20;2.00;;;5.60;1.00;;;;;;4977668;28;20425;-74
2021/11/29 13:24:37;;;;;;;3.00;2.00;;;5.60;1.00;;;;;;4992456;28;20815;-74
2021/11/29 13:27:07;;;;;;;2.93;1.60;;;5.60;1.00;;;;;;4992494;28;20453;-74
2021/11/29 13:29:48;;;;;;;2.67;1.60;;;5.60;1.00;;;;;;4974537;28;20469;-73
2021/11/29 13:32:24;;;;;;;3.27;1.60;;;5.60;1.00;;;;;;4967653;28;20418;-73
2021/11/29 13:35:00;;;;;;;5.03;1.87;;;5.60;1.00;;;;;;4980004;28;20417;-73
2021/11/29 13:37:31;;;;;;;11.63;1.87;;;5.60;1.00;;;;;;4974589;28;20433;-72
2021/11/29 13:40:04;;;;;;;2.03;1.70;;;5.60;1.00;;;;;;4983309;28;20429;-72
2021/11/29 13:42:38;;;;;;;4.80;1.83;;;5.60;1.00;;;;;;4994498;28;20468;-74
2021/11/29 13:45:10;;;;;;;3.40;2.30;;;5.60;1.00;;;;;;4984859;28;20447;-72